EXS3BD EGCC-LGKO
Flight info
| Callsign | EXS3BD |
|---|---|
| Flight time | N/A |
| Altitude | 33000 |
| Route | SONEX UL975 DESIG L603 DOLAS DCT NAVPI DCT DODEN DCT NEGIX DCT DINKU DCT BESNI DCT LATLO DCT OBEDI DCT BERTA DCT TEBLI/N0448F350 DCT TIVNU DCT MEDUX UM867 KOGAT DCT ERANA UL737 TSL UN130 MES UN139 LURUS L995 KOPAR |
| Aircraft | A321/M-SDE3FGHIRWY/LB1 |
Departure
| Time | N/A |
|---|---|
| Airport | Manchester Airport (EGCC) |
Arrival
| Time | 2026-05-08 13:57 |
|---|---|
| Airport | Kos International Airport "Ippokratis" (LGKO) |
| Time | Latitude | Longitude | Altitude | Speed | Heading |
|---|---|---|---|---|---|
| 2026-05-08 13:32 | 38.22864 | 25.91451 | 35139 ft | 466 kts | 161° |
| 2026-05-08 13:32 | 38.19874 | 25.93020 | 35139 ft | 457 kts | 168° |
| 2026-05-08 13:33 | 38.13872 | 25.95723 | 35097 ft | 458 kts | 168° |
| 2026-05-08 13:33 | 38.07868 | 25.98453 | 35108 ft | 459 kts | 168° |
| 2026-05-08 13:34 | 38.01856 | 26.01194 | 35112 ft | 460 kts | 168° |
| 2026-05-08 13:34 | 37.95829 | 26.03933 | 35115 ft | 461 kts | 168° |
| 2026-05-08 13:35 | 37.89785 | 26.06674 | 35099 ft | 462 kts | 168° |
| 2026-05-08 13:35 | 37.83718 | 26.09412 | 34686 ft | 459 kts | 168° |
| 2026-05-08 13:36 | 37.80698 | 26.10775 | 32950 ft | 467 kts | 168° |
| 2026-05-08 13:36 | 37.77652 | 26.12147 | 31749 ft | 471 kts | 168° |
| 2026-05-08 13:36 | 37.74585 | 26.13538 | 30892 ft | 467 kts | 168° |
| 2026-05-08 13:36 | 37.71556 | 26.14918 | 29944 ft | 458 kts | 168° |
| 2026-05-08 13:37 | 37.68583 | 26.16274 | 28951 ft | 446 kts | 168° |
| 2026-05-08 13:37 | 37.65757 | 26.17568 | 28588 ft | 421 kts | 168° |
| 2026-05-08 13:37 | 37.63055 | 26.18797 | 27879 ft | 408 kts | 168° |
| 2026-05-08 13:37 | 37.60379 | 26.19993 | 27351 ft | 404 kts | 168° |
| 2026-05-08 13:38 | 37.57768 | 26.21155 | 27174 ft | 395 kts | 168° |
| 2026-05-08 13:38 | 37.55173 | 26.22304 | 26732 ft | 395 kts | 169° |
| 2026-05-08 13:38 | 37.52610 | 26.23435 | 26294 ft | 394 kts | 168° |
| 2026-05-08 13:38 | 37.50030 | 26.24580 | 25868 ft | 393 kts | 168° |
| 2026-05-08 13:39 | 37.47454 | 26.25725 | 25440 ft | 393 kts | 168° |
| 2026-05-08 13:39 | 37.44881 | 26.26874 | 25008 ft | 391 kts | 167° |
| 2026-05-08 13:39 | 37.42321 | 26.28023 | 24604 ft | 390 kts | 167° |
| 2026-05-08 13:39 | 37.39774 | 26.29168 | 24181 ft | 388 kts | 167° |
| 2026-05-08 13:40 | 37.37232 | 26.30306 | 23760 ft | 386 kts | 167° |
| 2026-05-08 13:40 | 37.34710 | 26.31433 | 23280 ft | 385 kts | 167° |
| 2026-05-08 13:40 | 37.32195 | 26.32555 | 22867 ft | 382 kts | 167° |
| 2026-05-08 13:40 | 37.29694 | 26.33666 | 22437 ft | 379 kts | 167° |
| 2026-05-08 13:41 | 37.27220 | 26.34767 | 22014 ft | 376 kts | 167° |
| 2026-05-08 13:41 | 37.24752 | 26.35860 | 21593 ft | 374 kts | 167° |
| 2026-05-08 13:41 | 37.22307 | 26.36941 | 21020 ft | 376 kts | 166° |
| 2026-05-08 13:41 | 37.19843 | 26.38029 | 20686 ft | 371 kts | 167° |
| 2026-05-08 13:42 | 37.17417 | 26.39107 | 20288 ft | 369 kts | 167° |
| 2026-05-08 13:42 | 37.14999 | 26.40182 | 19876 ft | 367 kts | 167° |
| 2026-05-08 13:42 | 37.12602 | 26.41240 | 19446 ft | 366 kts | 167° |
| 2026-05-08 13:42 | 37.10200 | 26.42296 | 19027 ft | 365 kts | 167° |
| 2026-05-08 13:43 | 37.07805 | 26.43350 | 18600 ft | 364 kts | 167° |
| 2026-05-08 13:43 | 37.05412 | 26.44405 | 18137 ft | 364 kts | 166° |
| 2026-05-08 13:43 | 37.03034 | 26.45457 | 17715 ft | 362 kts | 166° |
| 2026-05-08 13:43 | 37.00663 | 26.46509 | 17302 ft | 360 kts | 166° |
| 2026-05-08 13:44 | 36.98314 | 26.47553 | 16889 ft | 358 kts | 166° |
| 2026-05-08 13:44 | 36.95972 | 26.48589 | 16479 ft | 356 kts | 166° |
| 2026-05-08 13:44 | 36.93646 | 26.49614 | 16077 ft | 354 kts | 166° |
| 2026-05-08 13:44 | 36.91407 | 26.50939 | 15600 ft | 362 kts | 149° |
| 2026-05-08 13:45 | 36.89563 | 26.53091 | 15167 ft | 367 kts | 128° |
| 2026-05-08 13:45 | 36.88151 | 26.55749 | 14729 ft | 367 kts | 124° |
| 2026-05-08 13:45 | 36.86786 | 26.58442 | 14293 ft | 367 kts | 123° |
| 2026-05-08 13:45 | 36.85437 | 26.61143 | 13841 ft | 367 kts | 122° |
| 2026-05-08 13:46 | 36.84090 | 26.63849 | 13378 ft | 366 kts | 123° |
| 2026-05-08 13:46 | 36.82751 | 26.66538 | 12926 ft | 364 kts | 123° |
| 2026-05-08 13:46 | 36.81417 | 26.69211 | 12494 ft | 362 kts | 123° |
| 2026-05-08 13:46 | 36.80083 | 26.71873 | 12053 ft | 360 kts | 123° |
| 2026-05-08 13:47 | 36.78751 | 26.74520 | 11609 ft | 359 kts | 124° |
| 2026-05-08 13:47 | 36.77420 | 26.77156 | 11164 ft | 358 kts | 124° |
| 2026-05-08 13:47 | 36.76094 | 26.79779 | 10716 ft | 357 kts | 124° |
| 2026-05-08 13:47 | 36.74777 | 26.82384 | 10367 ft | 353 kts | 124° |
| 2026-05-08 13:48 | 36.73493 | 26.84924 | 10235 ft | 340 kts | 124° |
| 2026-05-08 13:48 | 36.72260 | 26.87369 | 10054 ft | 323 kts | 125° |
| 2026-05-08 13:48 | 36.71095 | 26.89685 | 9525 ft | 309 kts | 125° |
| 2026-05-08 13:48 | 36.69987 | 26.91883 | 9270 ft | 288 kts | 125° |
| 2026-05-08 13:49 | 36.68968 | 26.93903 | 9071 ft | 265 kts | 126° |
| 2026-05-08 13:49 | 36.68005 | 26.95798 | 8502 ft | 260 kts | 126° |
| 2026-05-08 13:49 | 36.67040 | 26.97691 | 8273 ft | 250 kts | 126° |
| 2026-05-08 13:49 | 36.66122 | 26.99493 | 7822 ft | 243 kts | 125° |
| 2026-05-08 13:50 | 36.65241 | 27.01228 | 7361 ft | 233 kts | 125° |
| 2026-05-08 13:50 | 36.64390 | 27.02895 | 6818 ft | 230 kts | 125° |
| 2026-05-08 13:50 | 36.63526 | 27.04582 | 6326 ft | 226 kts | 125° |
| 2026-05-08 13:50 | 36.62681 | 27.06232 | 6128 ft | 225 kts | 124° |
| 2026-05-08 13:51 | 36.61869 | 27.07832 | 5991 ft | 211 kts | 124° |
| 2026-05-08 13:51 | 36.61115 | 27.09321 | 5899 ft | 203 kts | 124° |
| 2026-05-08 13:51 | 36.60606 | 27.10324 | 5838 ft | 202 kts | 124° |
| 2026-05-08 13:52 | 36.59746 | 27.13865 | 5608 ft | 205 kts | 88° |
| 2026-05-08 13:52 | 36.60036 | 27.15613 | 5209 ft | 209 kts | 69° |
| 2026-05-08 13:52 | 36.60572 | 27.17306 | 4838 ft | 211 kts | 70° |
| 2026-05-08 13:52 | 36.61120 | 27.18986 | 4443 ft | 209 kts | 63° |
| 2026-05-08 13:53 | 36.62077 | 27.20303 | 4136 ft | 205 kts | 32° |
| 2026-05-08 13:53 | 36.63406 | 27.20853 | 3844 ft | 202 kts | 2° |
| 2026-05-08 13:53 | 36.64756 | 27.20541 | 3550 ft | 197 kts | 334° |
| 2026-05-08 13:53 | 36.65913 | 27.19664 | 3297 ft | 194 kts | 327° |
| 2026-05-08 13:54 | 36.67056 | 27.18764 | 3009 ft | 193 kts | 327° |
| 2026-05-08 13:54 | 36.68191 | 27.17875 | 2801 ft | 193 kts | 327° |
| 2026-05-08 13:54 | 36.69326 | 27.16990 | 2524 ft | 193 kts | 326° |
| 2026-05-08 13:54 | 36.70462 | 27.16107 | 2271 ft | 192 kts | 327° |
| 2026-05-08 13:55 | 36.71572 | 27.15248 | 2040 ft | 181 kts | 327° |
| 2026-05-08 13:55 | 36.72599 | 27.14453 | 1788 ft | 170 kts | 327° |
| 2026-05-08 13:55 | 36.74562 | 27.12931 | 1345 ft | 164 kts | 327° |
| 2026-05-08 13:56 | 36.75523 | 27.12179 | 1127 ft | 162 kts | 327° |
| 2026-05-08 13:56 | 36.76478 | 27.11432 | 915 ft | 161 kts | 327° |
| 2026-05-08 13:56 | 36.77424 | 27.10692 | 706 ft | 160 kts | 327° |
| 2026-05-08 13:56 | 36.78360 | 27.09967 | 476 ft | 157 kts | 328° |
| 2026-05-08 13:57 | 36.79246 | 27.09280 | 408 ft | 129 kts | 328° |
| 2026-05-08 13:57 | 36.79805 | 27.08844 | 418 ft | 67 kts | 329° |
| 2026-05-08 13:57 | 36.80140 | 27.08583 | 418 ft | 53 kts | 327° |
| 2026-05-08 13:57 | 36.80307 | 27.08456 | 412 ft | 11 kts | 333° |
| 2026-05-08 13:58 | 36.80360 | 27.08467 | 421 ft | 6 kts | 65° |
| 2026-05-08 13:58 | 36.80355 | 27.08515 | 421 ft | 6 kts | 105° |
| 2026-05-08 13:58 | 36.80335 | 27.08609 | 421 ft | 19 kts | 104° |
| 2026-05-08 13:58 | 36.80280 | 27.08713 | 415 ft | 12 kts | 149° |
| 2026-05-08 13:59 | 36.80214 | 27.08764 | 418 ft | 11 kts | 148° |
| 2026-05-08 13:59 | 36.80208 | 27.08769 | 418 ft | 0 kts | 148° |
| 2026-05-08 13:59 | 36.80169 | 27.08799 | 415 ft | 14 kts | 147° |
| 2026-05-08 14:00 | 36.80147 | 27.08821 | 411 ft | 2 kts | 124° |
| 2026-05-08 14:00 | 36.80149 | 27.08838 | 410 ft | 4 kts | 74° |
| 2026-05-08 14:00 | 36.80170 | 27.08880 | 416 ft | 5 kts | 58° |
| 2026-05-08 14:00 | 36.80175 | 27.08891 | 416 ft | 2 kts | 58° |
| 2026-05-08 14:01 | 36.80179 | 27.08899 | 413 ft | 0 kts | 58° |